Hauptseite
METAR-TAF:

METAR-TAF

Flughäfen :

Flughafen Vientiane

Vientiane, Laos

Breite: 17-57N, Länge: 102-34E, Höhe: 171 m

Beobachtung

Neuester Wetterbericht von vor 25 Minuten, um 10:30 UTC
Wind 2 kt aus Ost
Temperatur 37°C
Luftfeuchtigkeit 25%
Luftdruck 1005 hPa
Sichtweite: 6000 m

METAR: VLVT 221030Z 09002KT 6000 NSC 37/14 Q1005 NOSIG

Zeit: 17:55 (10:55 UTC)

Prognose

Neuester Wetterbericht von vor 5 Stunden und 55 Minuten, um 05:00 UTC
Gültige Prognose vom 22 um 06 UTC bis 23 um 06 UTC
Wind 4 kt aus Nordwest
Sichtweite: 7000 m
Aufgelockert bewölkt in der Höhe von 5000 ft
Zeitweise
vom 22 um 12 UTC bis 22 um 16 UTC
Sichtweite: 3000 m
Aufgelockert bewölkt in der Höhe von 4000 ft
Aufgelockert bewölkt in der Höhe von 9000 ft
feuchter Dunst

TAF: VLVT 220500Z 2206/2306 32004KT 7000 SCT050 TEMPO 2212/2216 3000 BR SCT040 SCT090

Wetterbeobachtungen und Prognosen von mehr als 4000 Flughäfen (METAR und TAF Bericht).

Die verfügbaren Stationen werden durch gelbe und rote Markierungen auf der Karte dargestellt.

Führen Sie die Maus auf sie, um den Namen der Station zu sehen.

Darauf klicken, um die Beobachtung von Wetterbeobachtungen und Prognosen zu sehen.

Um die Karte zu ändern : klicken Sie auf den grünen Tasten mit einem schwarzen Kreuz Zum Vergrößern, auf den grünen Button mit einem Gedankenstrich zu verkleinern, oder auf die grünen Pfeile für benachbarte Karten.


METAR-TAF: